createdAt,value
2018-08-31T00:00:00.756Z,84.89
2018-08-31T00:02:54.054Z,84.45
2018-08-31T00:05:46.009Z,84.41
2018-08-31T00:08:31.696Z,85.07
2018-08-31T00:13:19.620Z,84.44
2018-08-31T00:15:54.101Z,85.25
2018-08-31T00:18:28.836Z,85.26
2018-08-31T00:21:03.380Z,85.83
2018-08-31T00:23:49.532Z,85.61
2018-08-31T00:26:35.357Z,86.38
2018-08-31T00:29:49.176Z,85.84
2018-08-31T00:34:38.175Z,86.77
2018-08-31T00:37:23.075Z,86.53
2018-08-31T00:40:11.344Z,87.28
2018-08-31T00:45:03.640Z,86.74
2018-08-31T00:47:38.056Z,87.18
2018-08-31T00:50:12.717Z,87.76
2018-08-31T00:52:47.708Z,87.02
2018-08-31T00:55:22.107Z,86.48
2018-08-31T00:57:57.019Z,86.63
2018-08-31T01:00:32.055Z,86.12
2018-08-31T01:03:06.828Z,86.64
2018-08-31T01:05:42.372Z,86.62
2018-08-31T01:08:16.995Z,86.77
2018-08-31T01:10:51.974Z,85.95
2018-08-31T01:13:27.319Z,85.42
2018-08-31T01:16:02.352Z,85.25
2018-08-31T01:18:37.067Z,85.24
2018-08-31T01:21:12.096Z,85.39
2018-08-31T01:23:46.956Z,85.89
2018-08-31T01:26:22.331Z,85.15
2018-08-31T01:28:57.259Z,85.24
2018-08-31T01:31:31.783Z,84.89
2018-08-31T01:34:06.625Z,84.88
2018-08-31T01:36:41.036Z,84.65
2018-08-31T01:39:15.989Z,84.98
2018-08-31T01:41:50.544Z,85.24
2018-08-31T01:44:25.424Z,85.15
2018-08-31T01:47:00.098Z,85.53
2018-08-31T01:49:34.692Z,85.47
2018-08-31T01:52:09.181Z,85.81
2018-08-31T01:54:43.553Z,86.37
2018-08-31T01:57:18.232Z,86.57
2018-08-31T01:59:53.120Z,86.36
2018-08-31T02:02:27.651Z,86.47
2018-08-31T02:05:02.190Z,86.94
2018-08-31T02:07:36.497Z,86.76
2018-08-31T02:10:11.467Z,86.87
2018-08-31T02:12:46.163Z,86.89
2018-08-31T02:15:20.944Z,86.73
2018-08-31T02:17:55.709Z,86.99
2018-08-31T02:20:30.463Z,86.85
2018-08-31T02:23:04.907Z,86.24
2018-08-31T02:25:39.580Z,86.05
2018-08-31T02:28:14.331Z,86.22
2018-08-31T02:30:48.832Z,86.74
2018-08-31T02:33:23.305Z,85.97
2018-08-31T02:35:59.618Z,85.66
2018-08-31T02:38:34.206Z,85.88
2018-08-31T02:41:09.021Z,85.30
2018-08-31T02:43:44.779Z,85.97
2018-08-31T02:46:21.557Z,85.89
2018-08-31T02:48:56.239Z,85.75
2018-08-31T02:51:30.540Z,85.45
2018-08-31T02:54:05.371Z,85.41
2018-08-31T02:56:39.852Z,85.69
2018-08-31T02:59:14.511Z,85.00
2018-08-31T03:01:48.771Z,85.05
2018-08-31T03:04:23.549Z,86.03
2018-08-31T03:06:58.414Z,86.34
2018-08-31T03:09:33.500Z,86.17
2018-08-31T03:12:08.952Z,86.05
2018-08-31T03:14:43.768Z,86.30
2018-08-31T03:17:18.371Z,86.48
2018-08-31T03:19:53.046Z,86.15
2018-08-31T03:22:27.418Z,86.16
2018-08-31T03:25:01.852Z,86.57
2018-08-31T03:27:37.001Z,86.33
2018-08-31T03:30:12.182Z,86.47
2018-08-31T03:32:47.277Z,85.96
2018-08-31T03:35:21.981Z,86.52
2018-08-31T03:37:56.769Z,85.81
2018-08-31T03:40:31.863Z,86.08
2018-08-31T03:43:06.771Z,86.27
2018-08-31T03:45:41.236Z,86.77
2018-08-31T03:48:16.132Z,86.24
2018-08-31T03:50:50.981Z,86.34
2018-08-31T03:53:26.020Z,86.28
2018-08-31T03:56:00.599Z,86.60
2018-08-31T03:58:35.416Z,86.30
2018-08-31T04:01:10.020Z,86.55
2018-08-31T04:03:44.875Z,86.48
2018-08-31T04:06:19.658Z,86.50
2018-08-31T04:08:54.915Z,86.23
2018-08-31T04:11:29.600Z,85.51
2018-08-31T04:14:05.394Z,86.25
2018-08-31T04:16:39.703Z,85.42
2018-08-31T04:19:18.503Z,85.85
2018-08-31T04:21:53.387Z,85.25
2018-08-31T04:24:28.946Z,85.66
2018-08-31T04:27:03.805Z,85.46
2018-08-31T04:29:38.661Z,85.57
2018-08-31T04:32:14.317Z,86.09
2018-08-31T04:34:48.804Z,85.50
2018-08-31T04:37:23.153Z,86.05
2018-08-31T04:39:57.948Z,85.77
2018-08-31T04:42:32.403Z,85.67
2018-08-31T04:45:06.734Z,85.59
2018-08-31T04:47:41.275Z,86.00
2018-08-31T04:50:15.887Z,85.51
2018-08-31T04:52:51.181Z,85.90
2018-08-31T04:55:26.269Z,85.51
2018-08-31T04:58:01.128Z,85.91
2018-08-31T05:00:35.499Z,85.80
2018-08-31T05:03:10.199Z,85.53
2018-08-31T05:05:44.786Z,86.05
2018-08-31T05:08:20.086Z,86.08
2018-08-31T05:10:54.788Z,85.58
2018-08-31T05:13:29.263Z,84.73
2018-08-31T05:16:04.095Z,85.05
2018-08-31T05:18:39.028Z,83.62
2018-08-31T05:21:13.462Z,84.32
2018-08-31T05:23:48.256Z,84.01
2018-08-31T05:26:22.800Z,84.28
2018-08-31T05:28:57.579Z,83.93
2018-08-31T05:31:32.342Z,82.95
2018-08-31T05:34:07.695Z,83.83
2018-08-31T05:36:42.939Z,83.93
2018-08-31T05:39:17.824Z,83.74
2018-08-31T05:41:52.242Z,84.14
2018-08-31T05:44:26.555Z,84.23
2018-08-31T05:47:02.223Z,84.08
2018-08-31T05:49:36.887Z,83.59
2018-08-31T05:52:11.228Z,83.57
2018-08-31T05:54:46.008Z,83.80
2018-08-31T05:57:20.571Z,83.50
2018-08-31T05:59:55.452Z,83.13
2018-08-31T06:02:30.093Z,83.12
2018-08-31T06:05:04.872Z,83.31
2018-08-31T06:07:39.352Z,83.71
2018-08-31T06:10:13.822Z,83.44
2018-08-31T06:12:48.287Z,84.03
2018-08-31T06:15:22.988Z,83.73
2018-08-31T06:17:57.638Z,83.47
2018-08-31T06:20:32.157Z,82.24
2018-08-31T06:23:07.156Z,83.01
2018-08-31T06:25:41.743Z,83.18
2018-08-31T06:28:16.195Z,83.90
2018-08-31T06:30:50.651Z,83.16
2018-08-31T06:33:25.505Z,83.35
2018-08-31T06:35:59.867Z,82.64
2018-08-31T06:38:34.736Z,82.60
2018-08-31T06:41:09.739Z,81.72
2018-08-31T06:43:44.204Z,80.46
2018-08-31T06:46:19.299Z,80.55
2018-08-31T06:48:54.516Z,79.85
2018-08-31T06:51:29.803Z,79.35
2018-08-31T06:54:05.208Z,79.99
2018-08-31T06:56:39.745Z,80.90
2018-08-31T06:59:14.516Z,80.95
2018-08-31T07:01:48.912Z,80.42
2018-08-31T07:04:23.605Z,80.17
2018-08-31T07:06:58.970Z,81.03
2018-08-31T07:09:33.771Z,81.13
2018-08-31T07:12:08.292Z,82.47
2018-08-31T07:14:43.436Z,81.58
2018-08-31T07:17:18.398Z,81.53
2018-08-31T07:19:54.634Z,81.10
2018-08-31T07:22:29.643Z,81.59
2018-08-31T07:25:04.599Z,81.79
2018-08-31T07:27:39.172Z,81.74
2018-08-31T07:30:14.776Z,81.58
2018-08-31T07:32:49.483Z,81.60
2018-08-31T07:35:23.823Z,83.16
2018-08-31T07:40:36.187Z,82.42
2018-08-31T07:43:10.886Z,81.93
2018-08-31T07:45:45.896Z,83.09
2018-08-31T07:48:20.746Z,83.04
2018-08-31T07:50:55.749Z,82.91
2018-08-31T07:53:30.646Z,83.11
2018-08-31T07:56:05.774Z,83.20
2018-08-31T07:58:40.204Z,83.56
2018-08-31T08:01:15.164Z,83.36
2018-08-31T08:03:49.952Z,82.92
2018-08-31T08:06:24.813Z,82.74
2018-08-31T08:08:59.453Z,82.80
2018-08-31T08:11:34.263Z,81.94
2018-08-31T08:14:09.466Z,81.56
2018-08-31T08:16:43.993Z,81.60
2018-08-31T08:19:18.786Z,81.00
2018-08-31T08:21:53.355Z,81.39
2018-08-31T08:24:27.995Z,81.67
2018-08-31T08:27:02.841Z,82.06
2018-08-31T08:29:37.397Z,82.18
2018-08-31T08:35:05.005Z,82.55
2018-08-31T08:37:40.676Z,81.95
2018-08-31T08:40:15.312Z,81.44
2018-08-31T08:42:50.081Z,81.20
2018-08-31T08:45:27.076Z,81.10
2018-08-31T08:48:01.990Z,82.41
2018-08-31T08:50:36.584Z,82.33
2018-08-31T08:53:17.547Z,82.79
2018-08-31T08:55:52.630Z,82.89
2018-08-31T08:58:29.155Z,82.30
2018-08-31T09:01:03.884Z,82.19
2018-08-31T09:03:38.756Z,83.38
2018-08-31T09:06:13.964Z,83.50
2018-08-31T09:08:48.402Z,83.90
2018-08-31T09:11:23.355Z,85.04
2018-08-31T09:13:59.863Z,84.24
2018-08-31T09:16:39.446Z,85.71
2018-08-31T09:19:14.759Z,84.27
2018-08-31T09:21:49.751Z,82.79
2018-08-31T09:24:24.396Z,83.37
2018-08-31T09:26:59.179Z,83.56
2018-08-31T09:29:34.043Z,83.69
2018-08-31T09:32:14.192Z,84.35
2018-08-31T09:34:52.095Z,84.58
2018-08-31T09:37:27.223Z,84.02
2018-08-31T09:40:01.922Z,84.12
2018-08-31T09:42:36.925Z,85.31
2018-08-31T09:45:12.308Z,85.41
2018-08-31T09:47:46.802Z,85.08
2018-08-31T09:50:21.455Z,84.40
2018-08-31T09:52:56.176Z,84.52
2018-08-31T09:55:31.260Z,85.07
2018-08-31T09:58:05.571Z,84.39
2018-08-31T10:00:45.747Z,83.32
2018-08-31T10:03:22.441Z,84.03
2018-08-31T10:05:57.169Z,83.64
2018-08-31T10:08:32.280Z,83.44
2018-08-31T10:11:06.579Z,84.43
2018-08-31T10:13:41.076Z,84.03
2018-08-31T10:16:15.984Z,83.16
2018-08-31T10:18:50.319Z,85.08
2018-08-31T10:21:25.361Z,83.85
2018-08-31T10:23:59.921Z,84.27
2018-08-31T10:26:34.756Z,85.46
2018-08-31T10:29:09.858Z,84.48
2018-08-31T10:31:44.921Z,85.59
2018-08-31T10:34:19.776Z,85.24
2018-08-31T10:36:54.748Z,85.94
2018-08-31T10:39:29.594Z,85.37
2018-08-31T10:42:04.796Z,83.14
2018-08-31T10:44:39.686Z,83.86
2018-08-31T10:47:14.458Z,82.66
2018-08-31T10:49:49.452Z,82.02
2018-08-31T10:52:24.163Z,83.08
2018-08-31T10:54:59.032Z,83.04
2018-08-31T10:57:34.211Z,84.25
2018-08-31T11:00:08.739Z,83.01
2018-08-31T11:02:43.904Z,83.33
2018-08-31T11:05:18.183Z,83.63
2018-08-31T11:07:53.341Z,83.07
2018-08-31T11:10:28.088Z,83.68
2018-08-31T11:13:07.211Z,84.55
2018-08-31T11:15:43.303Z,84.19
2018-08-31T11:18:18.457Z,84.26
2018-08-31T11:20:55.813Z,84.67
2018-08-31T11:23:30.999Z,83.97
2018-08-31T11:26:05.753Z,85.06
2018-08-31T11:28:42.134Z,84.52
2018-08-31T11:31:16.896Z,84.47
2018-08-31T11:33:52.100Z,85.39
2018-08-31T11:36:27.162Z,85.10
2018-08-31T11:39:01.687Z,84.27
2018-08-31T11:41:36.414Z,84.35
2018-08-31T11:44:10.861Z,84.54
2018-08-31T11:46:45.711Z,85.12
2018-08-31T11:49:20.736Z,84.51
2018-08-31T11:51:55.268Z,83.91
2018-08-31T11:54:29.911Z,84.74
2018-08-31T11:57:06.024Z,84.90
2018-08-31T11:59:40.854Z,84.94
2018-08-31T12:02:15.272Z,85.69
2018-08-31T12:04:50.368Z,84.53
2018-08-31T12:07:25.439Z,83.78
2018-08-31T12:10:00.079Z,83.31
2018-08-31T12:12:34.948Z,81.92
2018-08-31T12:15:09.844Z,81.03
2018-08-31T12:17:44.334Z,79.48
2018-08-31T12:20:18.904Z,78.78
2018-08-31T12:22:54.156Z,80.32
2018-08-31T12:25:29.037Z,80.43
2018-08-31T12:28:08.643Z,80.60
2018-08-31T12:30:44.872Z,79.51
2018-08-31T12:33:19.185Z,78.30
2018-08-31T12:35:54.851Z,79.34
2018-08-31T12:38:29.487Z,81.97
2018-08-31T12:41:03.983Z,81.58
2018-08-31T12:43:38.685Z,81.23
2018-08-31T12:46:14.176Z,80.66
2018-08-31T12:48:48.758Z,80.97
2018-08-31T12:51:26.107Z,81.77
2018-08-31T12:54:00.559Z,80.00
2018-08-31T12:56:35.760Z,80.84
2018-08-31T12:59:10.443Z,81.76
2018-08-31T13:01:46.570Z,80.57
2018-08-31T13:04:21.428Z,80.57
2018-08-31T13:06:56.465Z,80.04
2018-08-31T13:09:31.123Z,80.97
2018-08-31T13:12:06.316Z,80.86
2018-08-31T13:14:41.200Z,80.82
2018-08-31T13:17:15.861Z,79.42
2018-08-31T13:19:50.632Z,80.84
2018-08-31T13:22:26.472Z,81.39
2018-08-31T13:25:01.225Z,80.44
2018-08-31T13:27:36.856Z,78.55
2018-08-31T13:30:11.578Z,78.30
2018-08-31T13:32:46.160Z,78.59
2018-08-31T13:35:21.076Z,80.01
2018-08-31T13:37:57.890Z,79.94
2018-08-31T13:40:33.384Z,80.92
2018-08-31T13:43:08.097Z,80.23
2018-08-31T13:45:42.660Z,79.93
2018-08-31T13:48:17.176Z,78.13
2018-08-31T13:50:51.812Z,80.27
2018-08-31T13:53:26.491Z,80.43
2018-08-31T13:56:01.847Z,80.14
2018-08-31T13:58:36.245Z,81.47
2018-08-31T14:01:11.091Z,81.40
2018-08-31T14:03:45.391Z,81.49
2018-08-31T14:06:20.108Z,80.44
2018-08-31T14:08:54.534Z,80.74
2018-08-31T14:11:29.411Z,81.07
2018-08-31T14:14:03.836Z,80.72
2018-08-31T14:16:38.429Z,80.30
2018-08-31T14:19:13.314Z,81.06
2018-08-31T14:21:48.437Z,80.88
2018-08-31T14:24:23.708Z,80.16
2018-08-31T14:26:59.175Z,78.80
2018-08-31T14:29:33.908Z,80.76
2018-08-31T14:32:08.912Z,80.32
2018-08-31T14:34:44.183Z,81.79
2018-08-31T14:37:19.223Z,80.92
2018-08-31T14:39:53.530Z,81.01
2018-08-31T14:42:28.080Z,80.77
2018-08-31T14:45:05.337Z,81.18
2018-08-31T14:47:40.275Z,81.96
2018-08-31T14:50:14.978Z,80.11
2018-08-31T14:52:49.797Z,80.62
2018-08-31T14:55:24.514Z,81.03
2018-08-31T14:57:59.468Z,80.31
2018-08-31T15:00:42.127Z,79.63
2018-08-31T15:03:19.364Z,80.95
2018-08-31T15:05:54.649Z,81.43
2018-08-31T15:08:29.703Z,81.66
2018-08-31T15:11:04.600Z,82.38
2018-08-31T15:13:39.040Z,82.01
2018-08-31T15:16:13.423Z,82.18
2018-08-31T15:18:48.030Z,82.46
2018-08-31T15:21:22.795Z,82.17
2018-08-31T15:23:57.185Z,82.11
2018-08-31T15:26:31.722Z,82.83
2018-08-31T15:29:06.686Z,83.07
2018-08-31T15:31:41.318Z,83.04
2018-08-31T15:34:16.199Z,84.70
2018-08-31T15:36:50.634Z,83.91
2018-08-31T15:39:25.817Z,83.54
2018-08-31T15:42:02.204Z,82.83
2018-08-31T15:44:36.929Z,83.72
2018-08-31T15:47:12.237Z,83.67
2018-08-31T15:49:47.109Z,84.10
2018-08-31T15:52:21.908Z,84.05
2018-08-31T15:54:56.819Z,84.50
2018-08-31T15:57:31.520Z,82.99
2018-08-31T16:00:07.400Z,83.30
2018-08-31T16:02:45.868Z,83.47
2018-08-31T16:05:20.706Z,84.06
2018-08-31T16:07:56.064Z,83.84
2018-08-31T16:10:31.566Z,85.30
2018-08-31T16:13:10.281Z,84.74
2018-08-31T16:15:45.086Z,84.58
2018-08-31T16:18:19.742Z,83.83
2018-08-31T16:20:54.560Z,84.56
2018-08-31T16:23:29.855Z,84.12
2018-08-31T16:26:05.127Z,84.68
2018-08-31T16:28:40.287Z,83.89
2018-08-31T16:31:14.629Z,83.98
2018-08-31T16:33:49.628Z,84.23
2018-08-31T16:36:24.611Z,85.09
2018-08-31T16:38:59.680Z,85.47
2018-08-31T16:41:34.609Z,84.84
2018-08-31T16:44:08.945Z,85.65
2018-08-31T16:46:43.328Z,85.58
2018-08-31T16:49:17.863Z,84.76
2018-08-31T16:51:52.273Z,85.12
2018-08-31T16:54:27.130Z,85.49
2018-08-31T16:57:01.968Z,85.39
2018-08-31T16:59:36.532Z,85.74
2018-08-31T17:02:11.221Z,85.45
2018-08-31T17:04:47.104Z,86.05
2018-08-31T17:07:21.728Z,85.64
2018-08-31T17:09:57.444Z,85.66
2018-08-31T17:12:32.201Z,86.28
2018-08-31T17:15:06.974Z,87.03
2018-08-31T17:17:41.531Z,85.05
2018-08-31T17:20:17.251Z,85.24
2018-08-31T17:22:52.143Z,86.08
2018-08-31T17:25:27.379Z,85.88
2018-08-31T17:28:10.324Z,86.79
2018-08-31T17:30:45.230Z,86.24
2018-08-31T17:33:26.441Z,86.20
2018-08-31T17:36:07.051Z,86.28
2018-08-31T17:38:41.842Z,86.88
2018-08-31T17:41:16.287Z,86.07
2018-08-31T17:43:50.852Z,86.71
2018-08-31T17:46:26.002Z,87.82
2018-08-31T17:49:01.235Z,86.76
2018-08-31T17:51:36.843Z,87.53
2018-08-31T17:54:11.408Z,88.29
2018-08-31T17:56:46.552Z,87.84
2018-08-31T17:59:21.027Z,88.02
2018-08-31T18:01:55.604Z,87.29
2018-08-31T18:04:30.100Z,87.06
2018-08-31T18:07:05.424Z,87.31
2018-08-31T18:09:40.484Z,87.85
2018-08-31T18:12:16.064Z,87.11
2018-08-31T18:14:50.741Z,87.69
2018-08-31T18:17:25.751Z,88.38
2018-08-31T18:20:00.387Z,87.53
2018-08-31T18:22:34.901Z,86.94
2018-08-31T18:25:09.196Z,86.53
2018-08-31T18:27:43.648Z,86.27
2018-08-31T18:30:18.302Z,86.81
2018-08-31T18:32:52.661Z,86.59
2018-08-31T18:35:27.091Z,87.06
2018-08-31T18:38:02.077Z,87.39
2018-08-31T18:40:37.024Z,87.50
2018-08-31T18:43:11.759Z,86.69
2018-08-31T18:45:46.612Z,86.79
2018-08-31T18:48:21.104Z,85.73
2018-08-31T18:50:56.184Z,85.96
2018-08-31T18:53:31.051Z,85.93
2018-08-31T18:56:05.854Z,85.17
2018-08-31T18:58:40.531Z,85.49
2018-08-31T19:01:14.910Z,86.22
2018-08-31T19:03:49.239Z,85.87
2018-08-31T19:06:24.044Z,86.48
2018-08-31T19:08:58.516Z,86.02
2018-08-31T19:11:33.479Z,85.27
2018-08-31T19:14:08.671Z,85.58
2018-08-31T19:16:43.415Z,86.31
2018-08-31T19:19:18.263Z,86.20
2018-08-31T19:21:52.527Z,86.36
2018-08-31T19:24:27.231Z,85.82
2018-08-31T19:27:01.825Z,86.13
2018-08-31T19:29:36.576Z,86.16
2018-08-31T19:32:11.127Z,85.53
2018-08-31T19:34:45.748Z,85.77
2018-08-31T19:37:20.078Z,85.15
2018-08-31T19:39:54.560Z,85.22
2018-08-31T19:42:29.025Z,86.27
2018-08-31T19:45:03.758Z,87.20
2018-08-31T19:47:38.854Z,87.26
2018-08-31T19:50:13.267Z,86.76
2018-08-31T19:52:48.172Z,87.05
2018-08-31T19:55:23.481Z,86.74
2018-08-31T19:57:58.018Z,87.29
2018-08-31T20:00:32.794Z,87.41
2018-08-31T20:03:08.336Z,86.48
2018-08-31T20:05:42.993Z,87.05
2018-08-31T20:08:17.524Z,87.46
2018-08-31T20:10:52.706Z,87.54
2018-08-31T20:13:27.605Z,87.60
2018-08-31T20:16:07.161Z,87.18
2018-08-31T20:18:42.351Z,88.16
2018-08-31T20:21:16.946Z,87.58
2018-08-31T20:23:52.823Z,87.61
2018-08-31T20:26:27.686Z,87.44
2018-08-31T20:29:02.167Z,88.57
2018-08-31T20:31:37.021Z,87.99
2018-08-31T20:34:11.868Z,87.89
2018-08-31T20:36:46.404Z,87.97
2018-08-31T20:39:22.828Z,87.63
2018-08-31T20:42:00.145Z,87.96
2018-08-31T20:44:34.729Z,88.25
2018-08-31T20:47:10.759Z,87.85
2018-08-31T20:49:46.217Z,87.44
2018-08-31T20:52:20.709Z,88.44
2018-08-31T20:54:55.233Z,88.43
2018-08-31T20:57:29.989Z,87.99
2018-08-31T21:00:04.539Z,87.11
2018-08-31T21:02:39.365Z,88.21
2018-08-31T21:05:14.380Z,88.40
2018-08-31T21:07:48.867Z,87.75
2018-08-31T21:10:23.679Z,88.09
2018-08-31T21:12:58.392Z,88.23
2018-08-31T21:15:33.073Z,88.08
2018-08-31T21:18:08.409Z,87.65
2018-08-31T21:20:43.067Z,87.90
2018-08-31T21:23:18.968Z,87.85
2018-08-31T21:25:54.035Z,88.29
2018-08-31T21:28:28.882Z,87.31
2018-08-31T21:31:03.957Z,87.44
2018-08-31T21:33:38.943Z,87.31
2018-08-31T21:36:13.711Z,87.05
2018-08-31T21:38:48.257Z,87.19
2018-08-31T21:41:23.310Z,87.83
2018-08-31T21:43:58.391Z,87.43
2018-08-31T21:46:33.976Z,87.87
2018-08-31T21:49:08.533Z,87.50
2018-08-31T21:51:43.219Z,86.63
2018-08-31T21:54:17.664Z,87.08
2018-08-31T21:56:52.615Z,86.95
2018-08-31T21:59:30.608Z,86.68
2018-08-31T22:02:05.255Z,86.49
2018-08-31T22:04:39.935Z,86.75
2018-08-31T22:07:14.479Z,87.47
2018-08-31T22:09:50.104Z,86.91
2018-08-31T22:12:24.984Z,87.02
2018-08-31T22:15:00.013Z,87.11
2018-08-31T22:17:34.715Z,86.37
2018-08-31T22:20:09.200Z,86.52
2018-08-31T22:22:43.768Z,86.41
2018-08-31T22:27:55.416Z,87.69
2018-08-31T22:30:31.725Z,85.96
2018-08-31T22:33:06.337Z,86.37
2018-08-31T22:35:41.481Z,86.01
2018-08-31T22:38:16.059Z,86.89
2018-08-31T22:40:50.556Z,86.69
2018-08-31T22:43:32.962Z,86.98
2018-08-31T22:46:07.617Z,87.47
2018-08-31T22:48:42.433Z,87.54
2018-08-31T22:51:16.927Z,86.80
2018-08-31T22:53:51.347Z,86.70
2018-08-31T22:56:25.963Z,87.84
2018-08-31T22:59:00.577Z,87.43
2018-08-31T23:01:34.948Z,88.15
2018-08-31T23:04:09.521Z,88.46
2018-08-31T23:06:44.595Z,87.36
2018-08-31T23:09:19.692Z,87.79
2018-08-31T23:11:54.634Z,87.60
2018-08-31T23:14:29.247Z,87.66
2018-08-31T23:17:03.772Z,87.90
2018-08-31T23:19:38.204Z,87.40
2018-08-31T23:22:12.851Z,87.24
2018-08-31T23:24:47.375Z,86.60
2018-08-31T23:27:21.879Z,87.52
2018-08-31T23:29:56.399Z,87.64
2018-08-31T23:32:31.325Z,87.73
2018-08-31T23:35:05.899Z,88.21
2018-08-31T23:37:40.262Z,87.40
2018-08-31T23:40:15.372Z,88.15
2018-08-31T23:42:49.827Z,87.07
2018-08-31T23:45:24.689Z,87.57
2018-08-31T23:47:59.228Z,86.99
2018-08-31T23:50:33.896Z,87.69
2018-08-31T23:53:08.637Z,87.75
2018-08-31T23:55:54.591Z,88.32
2018-08-31T23:58:29.643Z,87.98
